createdAt,value
2022-10-01T00:02:07.003Z,76.15
2022-10-01T00:04:37.452Z,76.24
2022-10-01T00:07:09.472Z,76.75
2022-10-01T00:09:36.460Z,75.43
2022-10-01T00:12:03.927Z,75.76
2022-10-01T00:14:30.978Z,75.82
2022-10-01T00:16:57.963Z,74.97
2022-10-01T00:19:25.100Z,75.25
2022-10-01T00:21:52.023Z,75.55
2022-10-01T00:24:19.128Z,75.99
2022-10-01T00:26:46.633Z,76.29
2022-10-01T00:29:15.375Z,74.93
2022-10-01T00:31:43.197Z,75.71
2022-10-01T00:34:15.153Z,75.38
2022-10-01T00:36:42.363Z,75.43
2022-10-01T00:39:12.236Z,75.24
2022-10-01T00:41:39.190Z,75.32
2022-10-01T00:44:34.878Z,75.55
2022-10-01T00:47:34.596Z,75.96
2022-10-01T00:50:10.009Z,75.12
2022-10-01T00:52:40.903Z,75.11
2022-10-01T00:55:18.196Z,75.71
2022-10-01T00:57:45.679Z,75.58
2022-10-01T01:00:14.790Z,75.25
2022-10-01T01:02:42.385Z,74.67
2022-10-01T01:05:12.125Z,75.36
2022-10-01T01:07:42.260Z,74.32
2022-10-01T01:10:09.676Z,75.12
2022-10-01T01:13:12.779Z,74.85
2022-10-01T01:15:49.795Z,73.73
2022-10-01T01:18:26.801Z,74.36
2022-10-01T01:21:17.438Z,73.65
2022-10-01T01:24:25.374Z,74.50
2022-10-01T01:27:31.504Z,73.71
2022-10-01T01:30:13.520Z,73.15
2022-10-01T01:33:06.120Z,73.52
2022-10-01T01:35:54.836Z,72.69
2022-10-01T01:38:28.810Z,71.73
2022-10-01T01:41:02.221Z,72.65
2022-10-01T01:43:38.025Z,72.03
2022-10-01T01:46:08.042Z,71.43
2022-10-01T01:48:37.153Z,72.18
2022-10-01T01:51:32.081Z,72.20
2022-10-01T01:53:59.779Z,71.98
2022-10-01T01:56:26.996Z,71.89
2022-10-01T01:58:54.319Z,71.47
2022-10-01T02:01:44.572Z,71.59
2022-10-01T02:04:33.729Z,70.76
2022-10-01T02:07:34.776Z,71.95
2022-10-01T02:10:32.551Z,71.17
2022-10-01T02:13:24.299Z,71.74
2022-10-01T02:16:01.360Z,70.45
2022-10-01T02:18:46.500Z,71.23
2022-10-01T02:21:46.540Z,70.19
2022-10-01T02:24:26.467Z,70.38
2022-10-01T02:26:55.696Z,70.64
2022-10-01T02:29:23.950Z,70.25
2022-10-01T02:31:55.628Z,70.25
2022-10-01T02:34:28.935Z,70.25
2022-10-01T02:36:59.481Z,70.46
2022-10-01T02:39:30.851Z,70.10
2022-10-01T02:41:59.621Z,69.30
2022-10-01T02:44:38.780Z,69.13
2022-10-01T02:47:37.727Z,69.67
2022-10-01T02:50:07.216Z,68.99
2022-10-01T02:52:46.096Z,69.27
2022-10-01T02:55:19.511Z,68.62
2022-10-01T02:57:47.033Z,68.10
2022-10-01T03:00:21.321Z,68.09
2022-10-01T03:02:49.875Z,67.68
2022-10-01T03:05:18.107Z,67.41
2022-10-01T03:07:45.512Z,67.19
2022-10-01T03:10:16.070Z,67.63
2022-10-01T03:12:46.549Z,67.30
2022-10-01T03:15:16.884Z,67.85
2022-10-01T03:17:43.925Z,67.81
2022-10-01T03:20:12.504Z,68.54
2022-10-01T03:22:39.623Z,67.96
2022-10-01T03:25:07.042Z,68.13
2022-10-01T03:27:33.967Z,67.34
2022-10-01T03:30:01.185Z,68.24
2022-10-01T03:32:28.242Z,68.18
2022-10-01T03:34:55.363Z,66.74
2022-10-01T03:37:22.286Z,68.46
2022-10-01T03:39:49.523Z,68.03
2022-10-01T03:42:16.920Z,66.64
2022-10-01T03:44:44.366Z,67.29
2022-10-01T03:47:11.667Z,66.68
2022-10-01T03:49:38.673Z,66.44
2022-10-01T03:52:06.764Z,66.45
2022-10-01T03:54:33.956Z,66.99
2022-10-01T03:57:00.931Z,66.75
2022-10-01T03:59:28.012Z,67.22
2022-10-01T04:01:55.079Z,66.84
2022-10-01T04:04:22.385Z,67.15
2022-10-01T04:06:49.381Z,66.49
2022-10-01T04:09:16.478Z,67.18
2022-10-01T04:11:43.688Z,66.42
2022-10-01T04:14:10.649Z,66.88
2022-10-01T04:16:37.767Z,66.13
2022-10-01T04:19:05.374Z,66.71
2022-10-01T04:21:32.692Z,66.33
2022-10-01T04:24:00.428Z,66.36
2022-10-01T04:26:27.501Z,65.85
2022-10-01T04:28:54.441Z,66.67
2022-10-01T04:31:24.558Z,66.59
2022-10-01T04:33:57.523Z,66.36
2022-10-01T04:36:25.722Z,67.08
2022-10-01T04:39:01.693Z,66.03
2022-10-01T04:41:31.311Z,66.80
2022-10-01T04:44:00.251Z,65.89
2022-10-01T04:46:30.905Z,66.24
2022-10-01T04:48:58.217Z,65.48
2022-10-01T04:51:25.442Z,64.96
2022-10-01T04:53:52.430Z,64.58
2022-10-01T04:56:19.357Z,66.29
2022-10-01T04:58:46.708Z,64.37
2022-10-01T05:01:21.128Z,64.14
2022-10-01T05:03:48.153Z,63.65
2022-10-01T05:06:15.091Z,63.06
2022-10-01T05:08:42.341Z,63.15
2022-10-01T05:11:09.268Z,63.27
2022-10-01T05:13:36.387Z,62.43
2022-10-01T05:16:03.995Z,63.09
2022-10-01T05:18:31.183Z,63.31
2022-10-01T05:20:58.336Z,64.60
2022-10-01T05:23:25.405Z,64.87
2022-10-01T05:25:52.646Z,65.40
2022-10-01T05:28:22.497Z,66.45
2022-10-01T05:30:53.759Z,67.89
2022-10-01T05:33:20.876Z,67.72
2022-10-01T05:35:47.891Z,68.32
2022-10-01T05:38:14.988Z,68.70
2022-10-01T05:40:46.221Z,68.69
2022-10-01T05:43:13.531Z,70.02
2022-10-01T05:45:41.404Z,69.69
2022-10-01T05:48:09.617Z,71.27
2022-10-01T05:50:40.304Z,72.44
2022-10-01T05:53:09.991Z,70.94
2022-10-01T05:55:37.492Z,71.37
2022-10-01T05:58:08.215Z,71.83
2022-10-01T06:00:35.876Z,72.31
2022-10-01T06:03:04.455Z,72.94
2022-10-01T06:05:34.398Z,71.49
2022-10-01T06:08:04.888Z,72.73
2022-10-01T06:10:32.068Z,71.87
2022-10-01T06:13:02.046Z,71.46
2022-10-01T06:15:30.105Z,71.88
2022-10-01T06:17:57.245Z,72.04
2022-10-01T06:20:24.245Z,71.18
2022-10-01T06:22:56.843Z,71.61
2022-10-01T06:25:26.267Z,71.16
2022-10-01T06:27:56.281Z,72.10
2022-10-01T06:30:27.283Z,72.76
2022-10-01T06:33:16.527Z,71.69
2022-10-01T06:35:48.078Z,72.38
2022-10-01T06:38:17.390Z,71.55
2022-10-01T06:40:44.656Z,71.78
2022-10-01T06:43:11.643Z,71.08
2022-10-01T06:45:42.654Z,72.55
2022-10-01T06:48:14.641Z,70.90
2022-10-01T06:50:44.608Z,70.60
2022-10-01T06:53:14.161Z,70.51
2022-10-01T06:55:41.591Z,70.31
2022-10-01T06:58:16.538Z,69.77
2022-10-01T07:00:44.420Z,70.66
2022-10-01T07:03:18.447Z,70.20
2022-10-01T07:05:46.471Z,70.27
2022-10-01T07:08:13.682Z,69.95
2022-10-01T07:10:43.072Z,69.36
2022-10-01T07:13:16.901Z,69.70
2022-10-01T07:15:45.398Z,70.24
2022-10-01T07:18:12.852Z,69.87
2022-10-01T07:20:40.694Z,70.33
2022-10-01T07:23:13.776Z,70.47
2022-10-01T07:25:42.511Z,70.92
2022-10-01T07:28:18.544Z,70.73
2022-10-01T07:30:59.997Z,69.86
2022-10-01T07:33:27.465Z,71.16
2022-10-01T07:35:54.666Z,71.36
2022-10-01T07:38:22.116Z,71.59
2022-10-01T07:40:54.902Z,72.28
2022-10-01T07:43:22.674Z,71.45
2022-10-01T07:45:50.286Z,72.50
2022-10-01T07:48:17.336Z,72.13
2022-10-01T07:50:45.359Z,72.17
2022-10-01T07:53:13.009Z,71.56
2022-10-01T07:55:40.082Z,71.21
2022-10-01T07:58:09.532Z,71.22
2022-10-01T08:00:36.745Z,71.96
2022-10-01T08:03:05.352Z,71.08
2022-10-01T08:05:39.929Z,70.28
2022-10-01T08:08:09.387Z,70.33
2022-10-01T08:10:38.901Z,70.32
2022-10-01T08:13:14.681Z,69.43
2022-10-01T08:15:55.079Z,69.54
2022-10-01T08:18:22.721Z,68.70
2022-10-01T08:20:50.085Z,69.64
2022-10-01T08:23:17.692Z,68.96
2022-10-01T08:25:45.697Z,68.87
2022-10-01T08:28:20.779Z,68.91
2022-10-01T08:30:47.911Z,68.96
2022-10-01T08:33:16.942Z,69.27
2022-10-01T08:35:44.728Z,68.83
2022-10-01T08:38:12.916Z,68.70
2022-10-01T08:40:50.012Z,67.96
2022-10-01T08:43:32.337Z,67.91
2022-10-01T08:46:24.254Z,68.03
2022-10-01T08:49:18.311Z,67.45
2022-10-01T08:51:48.968Z,67.63
2022-10-01T08:55:08.042Z,67.01
2022-10-01T08:57:47.152Z,67.70
2022-10-01T09:00:17.029Z,66.44
2022-10-01T09:02:46.799Z,67.14
2022-10-01T09:05:25.426Z,67.21
2022-10-01T09:08:15.392Z,67.29
2022-10-01T09:11:01.383Z,68.00
2022-10-01T09:14:00.132Z,67.80
2022-10-01T09:16:51.516Z,68.59
2022-10-01T09:19:39.528Z,68.65
2022-10-01T09:23:02.985Z,68.14
2022-10-01T09:25:31.656Z,69.78
2022-10-01T09:28:24.832Z,70.23
2022-10-01T09:31:15.526Z,70.56
2022-10-01T09:34:11.771Z,71.32
2022-10-01T09:37:14.857Z,70.82
2022-10-01T09:39:49.212Z,70.75
2022-10-01T09:42:17.565Z,70.72
2022-10-01T09:44:46.872Z,72.10
2022-10-01T09:47:21.095Z,71.15
2022-10-01T09:49:49.854Z,71.17
2022-10-01T09:52:39.281Z,70.50
2022-10-01T09:55:45.769Z,71.43
2022-10-01T09:58:18.673Z,71.16
2022-10-01T10:00:48.268Z,72.06
2022-10-01T10:03:28.785Z,72.77
2022-10-01T10:05:57.800Z,73.08
2022-10-01T10:08:38.237Z,73.13
2022-10-01T10:11:10.872Z,73.34
2022-10-01T10:13:42.382Z,72.66
2022-10-01T10:16:22.090Z,73.16
2022-10-01T10:18:54.038Z,73.80
2022-10-01T10:21:30.119Z,73.30
2022-10-01T10:24:04.942Z,74.92
2022-10-01T10:26:39.371Z,75.54
2022-10-01T10:32:25.382Z,75.88
2022-10-01T10:34:58.873Z,75.25
2022-10-01T10:37:36.119Z,74.81
2022-10-01T10:40:08.008Z,75.11
2022-10-01T10:42:38.774Z,75.01
2022-10-01T10:45:18.824Z,74.97
2022-10-01T10:47:49.666Z,75.21
2022-10-01T10:50:29.906Z,74.96
2022-10-01T10:52:57.976Z,74.83
2022-10-01T10:55:31.813Z,75.39
2022-10-01T10:58:14.998Z,76.24
2022-10-01T11:00:50.512Z,76.78
2022-10-01T11:03:22.716Z,77.33
2022-10-01T11:05:51.999Z,75.71
2022-10-01T11:08:25.205Z,77.06
2022-10-01T11:11:39.243Z,76.72
2022-10-01T11:14:59.162Z,77.81
2022-10-01T11:17:31.188Z,78.00
2022-10-01T11:20:36.721Z,78.88
2022-10-01T11:23:51.756Z,77.97
2022-10-01T11:26:32.686Z,78.21
2022-10-01T11:29:17.776Z,79.30
2022-10-01T11:32:19.622Z,79.01
2022-10-01T11:35:08.140Z,79.66
2022-10-01T11:37:53.063Z,80.50
2022-10-01T11:40:35.978Z,80.46
2022-10-01T11:43:28.228Z,80.41
2022-10-01T11:46:06.887Z,81.25
2022-10-01T11:48:57.232Z,80.86
2022-10-01T11:51:37.178Z,80.47
2022-10-01T11:54:12.972Z,80.94
2022-10-01T11:57:09.126Z,80.90
2022-10-01T12:00:05.683Z,81.24
2022-10-01T12:02:59.120Z,80.72
2022-10-01T12:05:31.998Z,81.00
2022-10-01T12:08:22.216Z,81.82
2022-10-01T12:11:11.765Z,81.27
2022-10-01T12:13:46.868Z,81.67
2022-10-01T12:16:50.818Z,81.30
2022-10-01T12:19:32.371Z,81.38
2022-10-01T12:22:21.271Z,81.42
2022-10-01T12:24:51.227Z,82.32
2022-10-01T12:27:48.217Z,82.17
2022-10-01T12:30:20.058Z,81.78
2022-10-01T12:33:35.811Z,82.30
2022-10-01T12:36:25.468Z,82.28
2022-10-01T12:39:13.869Z,81.90
2022-10-01T12:42:31.279Z,82.16
2022-10-01T12:45:24.155Z,82.12
2022-10-01T12:48:32.085Z,82.65
2022-10-01T12:51:23.597Z,83.12
2022-10-01T12:54:05.694Z,83.27
2022-10-01T12:56:42.874Z,83.44
2022-10-01T12:59:24.507Z,83.03
2022-10-01T13:02:08.111Z,82.46
2022-10-01T13:05:06.662Z,81.92
2022-10-01T13:07:52.818Z,81.41
2022-10-01T13:10:39.367Z,81.38
2022-10-01T13:13:22.434Z,81.98
2022-10-01T13:16:04.872Z,81.93
2022-10-01T13:18:52.910Z,81.53
2022-10-01T13:21:57.926Z,82.26
2022-10-01T13:25:08.000Z,81.45
2022-10-01T13:27:42.489Z,81.44
2022-10-01T13:30:24.790Z,82.14
2022-10-01T13:33:01.113Z,81.49
2022-10-01T13:35:36.518Z,80.98
2022-10-01T13:38:29.362Z,81.67
2022-10-01T13:41:03.731Z,81.15
2022-10-01T13:43:34.182Z,81.02
2022-10-01T13:46:09.143Z,82.15
2022-10-01T13:48:45.419Z,81.53
2022-10-01T13:51:15.210Z,81.96
2022-10-01T13:53:42.106Z,81.91
2022-10-01T13:56:14.456Z,81.16
2022-10-01T13:58:44.328Z,81.85
2022-10-01T14:01:23.693Z,80.98
2022-10-01T14:03:58.964Z,80.95
2022-10-01T14:06:37.463Z,81.13
2022-10-01T14:09:31.594Z,81.71
2022-10-01T14:12:52.876Z,81.27
2022-10-01T14:15:44.426Z,81.62
2022-10-01T14:18:19.135Z,81.32
2022-10-01T14:21:33.933Z,81.77
2022-10-01T14:24:43.578Z,80.62
2022-10-01T14:27:25.739Z,80.49
2022-10-01T14:30:36.584Z,80.55
2022-10-01T14:33:23.428Z,80.29
2022-10-01T14:36:32.588Z,80.74
2022-10-01T14:39:23.069Z,80.26
2022-10-01T14:41:53.699Z,80.47
2022-10-01T14:44:43.753Z,79.12
2022-10-01T14:47:36.142Z,80.02
2022-10-01T14:50:17.637Z,80.17
2022-10-01T14:52:51.159Z,79.57
2022-10-01T14:55:23.204Z,79.26
2022-10-01T14:57:54.932Z,79.98
2022-10-01T15:00:30.555Z,79.44
2022-10-01T15:03:15.940Z,79.71
2022-10-01T15:05:46.288Z,79.81
2022-10-01T15:08:36.568Z,80.21
2022-10-01T15:11:13.167Z,80.54
2022-10-01T15:13:44.635Z,79.92
2022-10-01T15:16:21.875Z,80.59
2022-10-01T15:18:57.032Z,80.78
2022-10-01T15:21:40.089Z,81.20
2022-10-01T15:24:31.385Z,81.07
2022-10-01T15:26:58.873Z,82.11
2022-10-01T15:29:25.923Z,82.01
2022-10-01T15:31:56.174Z,82.17
2022-10-01T15:34:25.918Z,81.44
2022-10-01T15:36:54.272Z,80.90
2022-10-01T15:39:40.725Z,80.09
2022-10-01T15:42:28.591Z,81.33
2022-10-01T15:45:22.760Z,80.44
2022-10-01T15:47:52.072Z,80.32
2022-10-01T15:50:29.103Z,81.16
2022-10-01T15:53:06.632Z,81.49
2022-10-01T15:55:53.168Z,81.00
2022-10-01T15:58:31.719Z,80.91
2022-10-01T16:01:22.522Z,81.28
2022-10-01T16:04:14.945Z,80.93
2022-10-01T16:06:46.584Z,80.82
2022-10-01T16:09:18.942Z,81.35
2022-10-01T16:12:04.039Z,81.49
2022-10-01T16:14:56.313Z,81.29
2022-10-01T16:17:38.268Z,81.59
2022-10-01T16:20:14.378Z,82.55
2022-10-01T16:22:43.159Z,81.47
2022-10-01T16:25:25.040Z,81.55
2022-10-01T16:28:04.091Z,81.58
2022-10-01T16:30:34.000Z,82.23
2022-10-01T16:33:04.531Z,82.31
2022-10-01T16:35:35.699Z,81.71
2022-10-01T16:38:08.447Z,81.59
2022-10-01T16:40:42.181Z,82.13
2022-10-01T16:43:18.527Z,82.08
2022-10-01T16:45:45.962Z,81.95
2022-10-01T16:48:19.807Z,81.43
2022-10-01T16:50:47.163Z,81.53
2022-10-01T16:53:18.301Z,81.55
2022-10-01T16:55:46.630Z,82.54
2022-10-01T16:58:14.084Z,81.51
2022-10-01T17:00:41.603Z,82.19
2022-10-01T17:03:21.282Z,81.75
2022-10-01T17:05:48.582Z,82.16
2022-10-01T17:08:16.334Z,81.71
2022-10-01T17:10:57.015Z,81.46
2022-10-01T17:13:29.395Z,81.52
2022-10-01T17:15:57.147Z,81.73
2022-10-01T17:18:24.292Z,81.88
2022-10-01T17:20:51.410Z,82.47
2022-10-01T17:23:22.177Z,82.48
2022-10-01T17:25:49.713Z,81.49
2022-10-01T17:28:20.083Z,81.77
2022-10-01T17:30:49.275Z,81.88
2022-10-01T17:33:19.296Z,81.76
2022-10-01T17:35:54.674Z,82.08
2022-10-01T17:38:22.806Z,81.96
2022-10-01T17:40:56.195Z,82.57
2022-10-01T17:43:23.840Z,82.38
2022-10-01T17:46:00.989Z,81.90
2022-10-01T17:48:29.078Z,81.96
2022-10-01T17:51:08.127Z,82.75
2022-10-01T17:53:42.283Z,81.44
2022-10-01T17:56:19.500Z,81.47
2022-10-01T17:58:46.814Z,81.68
2022-10-01T18:01:19.668Z,81.48
2022-10-01T18:03:47.013Z,80.97
2022-10-01T18:06:16.110Z,81.96
2022-10-01T18:08:58.698Z,82.36
2022-10-01T18:11:28.206Z,82.20
2022-10-01T18:13:55.291Z,82.64
2022-10-01T18:16:23.763Z,82.11
2022-10-01T18:21:47.461Z,81.56
2022-10-01T18:24:16.273Z,82.45
2022-10-01T18:26:44.641Z,82.26
2022-10-01T18:29:23.382Z,81.09
2022-10-01T18:32:24.253Z,80.98
2022-10-01T18:35:00.793Z,81.27
2022-10-01T18:37:52.789Z,81.24
2022-10-01T18:40:27.203Z,81.38
2022-10-01T18:43:17.497Z,80.92
2022-10-01T18:46:38.964Z,81.52
2022-10-01T18:49:28.485Z,82.02
2022-10-01T18:52:46.821Z,81.86
2022-10-01T18:56:07.256Z,81.82
2022-10-01T18:58:54.694Z,82.50
2022-10-01T19:01:30.079Z,81.80
2022-10-01T19:04:27.960Z,81.74
2022-10-01T19:07:33.621Z,82.03
2022-10-01T19:10:26.123Z,82.35
2022-10-01T19:13:23.285Z,82.29
2022-10-01T19:16:27.242Z,81.55
2022-10-01T19:19:20.351Z,82.98
2022-10-01T19:22:22.029Z,82.43
2022-10-01T19:25:17.463Z,82.19
2022-10-01T19:28:06.425Z,83.13
2022-10-01T19:31:28.668Z,83.47
2022-10-01T19:34:30.361Z,82.75
2022-10-01T19:37:09.596Z,82.56
2022-10-01T19:39:41.412Z,82.92
2022-10-01T19:42:29.582Z,83.16
2022-10-01T19:45:24.182Z,83.27
2022-10-01T19:48:11.758Z,82.95
2022-10-01T19:50:44.394Z,82.02
2022-10-01T19:53:31.845Z,82.57
2022-10-01T19:56:01.860Z,82.70
2022-10-01T19:58:30.588Z,82.19
2022-10-01T20:01:01.620Z,81.70
2022-10-01T20:03:34.222Z,82.68
2022-10-01T20:06:09.142Z,83.34
2022-10-01T20:08:49.309Z,83.16
2022-10-01T20:11:36.340Z,82.41
2022-10-01T20:14:55.860Z,81.98
2022-10-01T20:17:42.853Z,82.58
2022-10-01T20:20:32.309Z,81.23
2022-10-01T20:23:31.128Z,81.11
2022-10-01T20:26:38.804Z,82.05
2022-10-01T20:29:32.232Z,80.56
2022-10-01T20:32:37.102Z,80.79
2022-10-01T20:35:34.870Z,81.71
2022-10-01T20:38:36.597Z,81.58
2022-10-01T20:41:14.992Z,80.41
2022-10-01T20:43:55.520Z,81.22
2022-10-01T20:46:38.851Z,81.47
2022-10-01T20:49:24.840Z,81.22
2022-10-01T20:52:31.163Z,81.04
2022-10-01T20:55:10.199Z,79.96
2022-10-01T20:57:45.266Z,80.96
2022-10-01T21:00:23.351Z,81.03
2022-10-01T21:03:19.616Z,81.14
2022-10-01T21:06:04.801Z,80.26
2022-10-01T21:08:41.692Z,80.33
2022-10-01T21:11:25.574Z,80.71
2022-10-01T21:14:06.463Z,81.36
2022-10-01T21:17:08.748Z,80.92
2022-10-01T21:20:04.086Z,80.75
2022-10-01T21:23:01.831Z,80.84
2022-10-01T21:26:09.812Z,80.54
2022-10-01T21:28:39.706Z,80.92
2022-10-01T21:31:37.038Z,81.36
2022-10-01T21:34:33.341Z,80.62
2022-10-01T21:37:33.031Z,81.17
2022-10-01T21:40:48.357Z,80.81
2022-10-01T21:43:36.042Z,81.33
2022-10-01T21:46:21.241Z,81.59
2022-10-01T21:49:29.204Z,82.12
2022-10-01T21:52:21.493Z,81.24
2022-10-01T21:54:51.056Z,81.50
2022-10-01T21:57:35.903Z,81.60
2022-10-01T22:00:21.698Z,82.05
2022-10-01T22:03:19.689Z,81.20
2022-10-01T22:05:52.346Z,81.52
2022-10-01T22:08:41.383Z,82.17
2022-10-01T22:11:18.496Z,81.20
2022-10-01T22:14:02.158Z,80.73
2022-10-01T22:16:39.916Z,81.15
2022-10-01T22:19:13.919Z,80.89
2022-10-01T22:21:54.201Z,80.79
2022-10-01T22:24:33.171Z,80.78
2022-10-01T22:27:20.158Z,81.96
2022-10-01T22:30:06.646Z,81.71
2022-10-01T22:32:42.541Z,81.22
2022-10-01T22:35:23.692Z,82.02
2022-10-01T22:38:05.242Z,81.93
2022-10-01T22:40:42.408Z,82.01
2022-10-01T22:43:12.141Z,81.89
2022-10-01T22:46:18.077Z,81.40
2022-10-01T22:49:22.364Z,83.54
2022-10-01T22:52:25.970Z,82.27
2022-10-01T22:55:21.775Z,82.85
2022-10-01T22:58:09.620Z,81.45
2022-10-01T23:01:08.249Z,81.92
2022-10-01T23:04:04.303Z,82.40
2022-10-01T23:06:41.679Z,82.93
2022-10-01T23:09:33.927Z,82.11
2022-10-01T23:12:40.191Z,83.19
2022-10-01T23:15:36.979Z,83.78
2022-10-01T23:18:25.403Z,83.24
2022-10-01T23:21:32.785Z,83.46
2022-10-01T23:24:20.867Z,83.73
2022-10-01T23:27:30.535Z,84.01
2022-10-01T23:30:11.704Z,84.15
2022-10-01T23:33:34.710Z,84.46
2022-10-01T23:36:26.494Z,83.36
2022-10-01T23:39:34.853Z,84.24
2022-10-01T23:42:28.876Z,83.32
2022-10-01T23:45:12.053Z,84.18
2022-10-01T23:47:57.472Z,83.74
2022-10-01T23:50:37.952Z,84.12
2022-10-01T23:53:51.141Z,84.23
2022-10-01T23:56:57.625Z,84.18
2022-10-01T23:59:52.438Z,83.31
